Time;durP1;ratioP1;P1;durP2;ratioP2;P2;SDS_P1;SDS_P2;PMS_P1;PMS_P2;Temp;Humidity;BMP_temperature;BMP_pressure;BME280_temperature;BME280_humidity;BME280_pressure;Samples;Min_cycle;Max_cycle;Signal;HPM_P1;HPM_P2
2023/01/13 00:01:19;;;;;;;35.03;16.30;;;;;;;;;;5153332;27;20053;-71
2023/01/13 00:03:45;;;;;;;36.90;15.68;;;;;;;;;;5154470;27;20022;-71
2023/01/13 00:06:13;;;;;;;35.20;16.00;;;;;;;;;;5154489;27;20083;-71
2023/01/13 00:08:38;;;;;;;37.42;16.33;;;;;;;;;;5152988;27;20060;-70
2023/01/13 00:11:04;;;;;;;35.50;15.80;;;;;;;;;;5154404;27;20074;-72
2023/01/13 00:13:31;;;;;;;32.47;15.85;;;;;;;;;;5154368;27;20029;-72
2023/01/13 00:16:02;;;;;;;37.00;14.88;;;;;;;;;;5154501;27;20031;-73
2023/01/13 00:18:27;;;;;;;30.80;14.13;;;;;;;;;;5154060;27;20023;-71
2023/01/13 00:21:04;;;;;;;37.30;15.05;;;;;;;;;;5154377;27;20493;-70
2023/01/13 00:23:31;;;;;;;36.25;15.52;;;;;;;;;;5154374;27;20603;-71
2023/01/13 00:25:58;;;;;;;30.05;14.50;;;;;;;;;;5154236;27;20378;-73
2023/01/13 00:28:24;;;;;;;34.53;14.23;;;;;;;;;;5153837;27;20026;-73
2023/01/13 00:30:50;;;;;;;34.10;14.23;;;;;;;;;;5153963;27;20071;-70
2023/01/13 00:33:15;;;;;;;27.38;13.90;;;;;;;;;;5153901;27;20018;-71
2023/01/13 00:35:40;;;;;;;29.02;14.48;;;;;;;;;;5153896;27;20382;-76
2023/01/13 00:38:06;;;;;;;27.98;14.02;;;;;;;;;;5153878;27;20059;-70
2023/01/13 00:40:31;;;;;;;32.60;14.18;;;;;;;;;;5154016;27;20029;-69
2023/01/13 00:45:40;;;;;;;33.00;14.95;;;;;;;;;;5153624;27;20135;-71
2023/01/13 00:48:06;;;;;;;28.92;14.30;;;;;;;;;;5153191;27;20113;-70
2023/01/13 00:50:31;;;;;;;34.22;14.95;;;;;;;;;;5153727;27;20010;-72
2023/01/13 00:53:00;;;;;;;33.38;14.68;;;;;;;;;;5152311;27;20027;-72
2023/01/13 00:55:26;;;;;;;30.20;14.43;;;;;;;;;;5153619;27;20023;-71
2023/01/13 00:57:51;;;;;;;30.83;14.77;;;;;;;;;;5153238;27;20152;-73
2023/01/13 01:00:17;;;;;;;32.13;14.50;;;;;;;;;;5153495;27;20026;-72
2023/01/13 01:02:42;;;;;;;30.00;15.18;;;;;;;;;;5155055;27;20050;-71
2023/01/13 01:05:08;;;;;;;31.05;14.23;;;;;;;;;;5153036;27;20025;-71
2023/01/13 01:07:34;;;;;;;31.33;14.68;;;;;;;;;;5153251;27;20022;-71
2023/01/13 01:10:00;;;;;;;33.17;15.00;;;;;;;;;;5153404;27;20019;-71
2023/01/13 01:12:25;;;;;;;30.35;14.73;;;;;;;;;;5153343;27;20082;-74
2023/01/13 01:14:50;;;;;;;31.75;14.38;;;;;;;;;;5153612;27;20033;-77
2023/01/13 01:17:16;;;;;;;28.73;14.85;;;;;;;;;;5156240;27;20055;-73
2023/01/13 01:19:41;;;;;;;29.75;14.57;;;;;;;;;;5160095;27;20026;-71
2023/01/13 01:22:07;;;;;;;34.47;15.00;;;;;;;;;;5153683;27;20022;-71
2023/01/13 01:24:32;;;;;;;27.95;13.95;;;;;;;;;;5152983;27;20618;-75
2023/01/13 01:26:57;;;;;;;26.38;13.75;;;;;;;;;;5153862;27;20023;-72
2023/01/13 01:29:23;;;;;;;31.50;14.55;;;;;;;;;;5152893;27;20031;-71
2023/01/13 01:31:48;;;;;;;33.65;14.05;;;;;;;;;;5152901;27;20018;-73
2023/01/13 01:34:13;;;;;;;33.70;14.05;;;;;;;;;;5152984;27;20141;-71
2023/01/13 01:36:39;;;;;;;29.77;14.15;;;;;;;;;;5153091;27;20537;-70
2023/01/13 01:39:05;;;;;;;27.98;13.45;;;;;;;;;;5153711;27;20022;-73
2023/01/13 01:41:33;;;;;;;27.70;13.43;;;;;;;;;;5152558;27;20014;-72
2023/01/13 01:44:27;;;;;;;25.83;12.82;;;;;;;;;;5152792;27;20030;-72
2023/01/13 01:46:53;;;;;;;33.90;13.50;;;;;;;;;;5152433;27;20459;-71
2023/01/13 01:49:25;;;;;;;26.02;12.48;;;;;;;;;;5152583;27;20026;-71
2023/01/13 01:51:55;;;;;;;27.83;10.20;;;;;;;;;;5158148;27;20486;-71
2023/01/13 01:54:29;;;;;;;21.70;9.60;;;;;;;;;;5152857;27;20113;-71
2023/01/13 01:56:55;;;;;;;19.98;8.90;;;;;;;;;;5153253;27;20038;-76
2023/01/13 01:59:21;;;;;;;20.08;9.18;;;;;;;;;;5152278;27;20023;-71
2023/01/13 02:01:47;;;;;;;18.10;7.78;;;;;;;;;;5152524;27;20025;-72
2023/01/13 02:04:24;;;;;;;20.08;8.80;;;;;;;;;;5152313;27;20562;-71
2023/01/13 02:06:52;;;;;;;18.02;8.35;;;;;;;;;;5152436;27;20019;-72
2023/01/13 02:09:17;;;;;;;19.38;7.60;;;;;;;;;;5152090;27;20079;-70
2023/01/13 02:14:29;;;;;;;19.02;6.65;;;;;;;;;;5152190;27;20057;-71
2023/01/13 02:17:21;;;;;;;21.20;6.95;;;;;;;;;;5151040;27;20055;-71
2023/01/13 02:20:07;;;;;;;16.65;6.28;;;;;;;;;;5151902;27;20034;-71
2023/01/13 02:22:57;;;;;;;16.77;6.18;;;;;;;;;;5152402;27;20034;-72
2023/01/13 02:26:07;;;;;;;16.67;5.88;;;;;;;;;;5150928;27;20038;-71
2023/01/13 02:31:41;;;;;;;15.18;5.00;;;;;;;;;;5154878;27;20114;-70
2023/01/13 02:34:24;;;;;;;16.65;5.10;;;;;;;;;;5156272;27;20019;-73
2023/01/13 02:37:03;;;;;;;12.50;4.72;;;;;;;;;;5156237;27;20023;-73
2023/01/13 02:39:57;;;;;;;11.70;4.35;;;;;;;;;;5156340;27;20031;-72
2023/01/13 02:45:25;;;;;;;12.40;4.22;;;;;;;;;;5156367;27;20553;-70
2023/01/13 02:47:54;;;;;;;13.30;4.15;;;;;;;;;;5156065;27;20019;-70
2023/01/13 02:50:38;;;;;;;15.82;4.30;;;;;;;;;;5155649;27;20572;-74
2023/01/13 02:53:27;;;;;;;11.13;3.80;;;;;;;;;;5156243;27;20083;-71
2023/01/13 02:55:55;;;;;;;10.18;3.67;;;;;;;;;;5156342;27;20015;-70
2023/01/13 02:58:27;;;;;;;9.23;3.42;;;;;;;;;;5156157;27;20056;-70
2023/01/13 03:00:53;;;;;;;9.80;3.40;;;;;;;;;;5154786;27;20023;-71
2023/01/13 03:03:19;;;;;;;12.63;3.75;;;;;;;;;;5156027;27;20060;-72
2023/01/13 03:05:47;;;;;;;8.32;2.85;;;;;;;;;;5157029;27;20030;-70
2023/01/13 03:08:31;;;;;;;9.68;3.20;;;;;;;;;;5159851;27;20037;-78
2023/01/13 03:11:02;;;;;;;10.15;3.55;;;;;;;;;;5177355;27;20042;-71
2023/01/13 03:13:56;;;;;;;9.98;3.40;;;;;;;;;;5179150;27;20030;-73
2023/01/13 03:16:59;;;;;;;9.50;3.13;;;;;;;;;;5169515;27;20029;-73
2023/01/13 03:19:37;;;;;;;13.48;3.13;;;;;;;;;;5163290;27;20066;-71
2023/01/13 03:22:21;;;;;;;10.10;3.15;;;;;;;;;;5160303;27;20030;-74
2023/01/13 03:24:54;;;;;;;10.15;3.00;;;;;;;;;;5160737;27;20086;-71
2023/01/13 03:27:26;;;;;;;15.38;3.25;;;;;;;;;;5160416;27;20606;-71
2023/01/13 03:29:59;;;;;;;9.55;3.20;;;;;;;;;;5161952;27;20034;-74
2023/01/13 03:32:48;;;;;;;10.07;3.33;;;;;;;;;;5159577;27;20039;-71
2023/01/13 03:35:22;;;;;;;9.40;3.10;;;;;;;;;;5158187;27;20019;-76
2023/01/13 03:37:58;;;;;;;9.48;3.45;;;;;;;;;;5161083;27;20054;-72
2023/01/13 03:40:31;;;;;;;10.77;3.33;;;;;;;;;;5158253;27;20386;-73
2023/01/13 03:45:56;;;;;;;9.77;2.95;;;;;;;;;;5158467;27;20059;-78
2023/01/13 03:48:25;;;;;;;13.18;3.30;;;;;;;;;;5159346;27;20031;-71
2023/01/13 03:50:55;;;;;;;9.52;3.13;;;;;;;;;;5161595;27;20029;-70
2023/01/13 03:53:28;;;;;;;11.23;3.13;;;;;;;;;;5162207;27;20019;-77
2023/01/13 03:56:00;;;;;;;8.32;3.28;;;;;;;;;;5158870;27;20366;-78
2023/01/13 03:58:31;;;;;;;10.32;3.17;;;;;;;;;;5165174;27;20204;-76
2023/01/13 04:01:27;;;;;;;10.25;3.10;;;;;;;;;;5162513;27;20022;-73
2023/01/13 04:04:11;;;;;;;11.20;3.78;;;;;;;;;;5165598;27;20027;-72
2023/01/13 04:06:59;;;;;;;9.77;3.00;;;;;;;;;;5165950;27;20091;-75
2023/01/13 04:09:48;;;;;;;12.88;3.00;;;;;;;;;;5165958;27;20052;-72
2023/01/13 04:15:26;;;;;;;9.63;3.05;;;;;;;;;;5164461;27;20264;-71
2023/01/13 04:17:53;;;;;;;9.80;3.40;;;;;;;;;;5162484;27;20022;-71
2023/01/13 04:20:19;;;;;;;11.23;3.30;;;;;;;;;;5154408;27;20022;-71
2023/01/13 04:22:44;;;;;;;11.52;3.65;;;;;;;;;;5154966;27;20102;-73
2023/01/13 04:25:10;;;;;;;9.38;3.30;;;;;;;;;;5154263;27;20019;-75
2023/01/13 04:27:35;;;;;;;10.25;3.45;;;;;;;;;;5154287;27;20026;-72
2023/01/13 04:30:01;;;;;;;10.13;3.20;;;;;;;;;;5156557;27;20015;-72
2023/01/13 04:32:26;;;;;;;11.05;3.33;;;;;;;;;;5160635;27;20030;-70
2023/01/13 04:34:52;;;;;;;10.32;3.42;;;;;;;;;;5158741;27;20015;-71
2023/01/13 04:37:17;;;;;;;10.55;3.30;;;;;;;;;;5157850;27;20023;-71
2023/01/13 04:39:42;;;;;;;6.18;2.83;;;;;;;;;;5164083;27;20327;-72
2023/01/13 04:42:08;;;;;;;12.40;3.65;;;;;;;;;;5165353;27;20027;-72
2023/01/13 04:44:34;;;;;;;10.27;3.20;;;;;;;;;;5158690;27;20093;-71
2023/01/13 04:47:00;;;;;;;11.00;3.30;;;;;;;;;;5163414;27;20065;-70
2023/01/13 04:49:26;;;;;;;8.23;3.35;;;;;;;;;;5162809;27;20026;-70
2023/01/13 04:51:52;;;;;;;10.23;3.00;;;;;;;;;;5157588;27;20398;-70
2023/01/13 04:54:17;;;;;;;11.80;3.47;;;;;;;;;;5155558;27;20046;-78
2023/01/13 04:56:42;;;;;;;10.88;3.55;;;;;;;;;;5163481;27;20026;-73
2023/01/13 04:59:12;;;;;;;9.15;3.25;;;;;;;;;;5159009;27;20035;-77
2023/01/13 05:01:38;;;;;;;11.02;3.28;;;;;;;;;;5158501;27;20023;-74
2023/01/13 05:04:03;;;;;;;7.50;3.00;;;;;;;;;;5153590;27;20023;-72
2023/01/13 05:06:29;;;;;;;8.90;3.40;;;;;;;;;;5159913;27;20106;-73
2023/01/13 05:08:54;;;;;;;11.70;4.00;;;;;;;;;;5156229;27;20026;-75
2023/01/13 05:17:00;;;;;;;9.52;3.28;;;;;;;;;;5156932;27;20532;-75
2023/01/13 05:19:34;;;;;;;10.25;3.95;;;;;;;;;;5153104;27;20514;-71
2023/01/13 05:27:29;;;;;;;9.63;3.50;;;;;;;;;;5159466;27;20037;-72
2023/01/13 05:29:55;;;;;;;11.15;3.20;;;;;;;;;;5160847;27;20029;-72
2023/01/13 05:32:21;;;;;;;8.45;3.35;;;;;;;;;;5157007;27;20410;-72
2023/01/13 05:34:47;;;;;;;9.73;3.58;;;;;;;;;;5160451;27;20453;-72
2023/01/13 05:37:12;;;;;;;9.20;3.70;;;;;;;;;;5162209;27;20322;-70
2023/01/13 05:45:20;;;;;;;12.18;4.07;;;;;;;;;;5139363;27;20038;-72
2023/01/13 05:47:46;;;;;;;13.02;3.75;;;;;;;;;;5163600;27;20055;-73
2023/01/13 05:50:11;;;;;;;9.88;3.75;;;;;;;;;;5155848;27;20029;-76
2023/01/13 05:52:37;;;;;;;10.10;4.25;;;;;;;;;;5156321;27;20018;-76
2023/01/13 05:55:02;;;;;;;13.55;4.22;;;;;;;;;;5158412;27;20038;-72
2023/01/13 05:57:28;;;;;;;9.90;3.90;;;;;;;;;;5153036;27;20053;-72
2023/01/13 05:59:54;;;;;;;10.60;3.97;;;;;;;;;;5152659;27;20068;-73
2023/01/13 06:02:19;;;;;;;8.40;3.53;;;;;;;;;;5152658;27;20470;-74
2023/01/13 06:04:44;;;;;;;11.68;3.63;;;;;;;;;;5151868;27;20026;-72
2023/01/13 06:07:10;;;;;;;12.50;3.85;;;;;;;;;;5152054;27;20056;-70
2023/01/13 06:09:35;;;;;;;12.50;3.80;;;;;;;;;;5152783;27;20065;-77
2023/01/13 06:12:00;;;;;;;10.93;3.90;;;;;;;;;;5152486;27;20406;-75
2023/01/13 06:14:38;;;;;;;9.25;3.95;;;;;;;;;;5153376;27;20023;-74
2023/01/13 06:17:06;;;;;;;13.85;4.57;;;;;;;;;;5152586;27;20057;-71
2023/01/13 06:19:31;;;;;;;16.52;4.40;;;;;;;;;;5157408;27;20371;-72
2023/01/13 06:21:57;;;;;;;13.27;4.35;;;;;;;;;;5163271;27;20030;-71
2023/01/13 06:24:22;;;;;;;11.10;3.80;;;;;;;;;;5159136;27;20072;-72
2023/01/13 06:26:47;;;;;;;11.13;4.20;;;;;;;;;;5161041;27;20037;-72
2023/01/13 06:29:15;;;;;;;11.77;3.85;;;;;;;;;;5157076;27;20078;-72
2023/01/13 06:31:41;;;;;;;9.40;3.58;;;;;;;;;;5158787;27;20030;-71
2023/01/13 06:34:11;;;;;;;9.40;3.97;;;;;;;;;;5162090;27;20115;-71
2023/01/13 06:36:42;;;;;;;14.32;4.15;;;;;;;;;;5162224;27;20042;-70
2023/01/13 06:39:09;;;;;;;11.27;4.22;;;;;;;;;;5157071;27;20073;-71
2023/01/13 06:44:20;;;;;;;10.48;4.65;;;;;;;;;;5157934;27;20274;-71
2023/01/13 06:46:46;;;;;;;12.32;4.50;;;;;;;;;;5158070;27;20067;-70
2023/01/13 06:49:11;;;;;;;9.90;4.60;;;;;;;;;;5161577;27;20085;-70
2023/01/13 06:51:37;;;;;;;9.50;4.13;;;;;;;;;;5157029;27;20022;-73
2023/01/13 06:54:02;;;;;;;15.50;4.50;;;;;;;;;;5158231;27;20026;-70
2023/01/13 06:56:28;;;;;;;10.43;3.92;;;;;;;;;;5153555;27;20035;-70
2023/01/13 06:58:53;;;;;;;10.02;3.92;;;;;;;;;;5152238;27;20564;-70
2023/01/13 07:01:19;;;;;;;10.70;3.92;;;;;;;;;;5152593;27;20037;-70
2023/01/13 07:03:44;;;;;;;13.90;4.07;;;;;;;;;;5163431;27;20106;-72
2023/01/13 07:06:09;;;;;;;11.30;4.55;;;;;;;;;;5151939;27;20060;-75
2023/01/13 07:08:35;;;;;;;14.02;4.45;;;;;;;;;;5161539;27;20027;-74
2023/01/13 07:11:01;;;;;;;10.90;4.65;;;;;;;;;;5162279;27;20023;-78
2023/01/13 07:16:10;;;;;;;9.32;2.80;;;;;;;;;;5159047;27;20068;-72
2023/01/13 07:18:36;;;;;;;7.78;2.72;;;;;;;;;;5162759;27;20023;-76
2023/01/13 07:21:09;;;;;;;7.97;3.30;;;;;;;;;;5160667;27;20066;-71
2023/01/13 07:23:37;;;;;;;8.85;2.78;;;;;;;;;;5158487;27;20067;-77
2023/01/13 07:26:03;;;;;;;12.80;2.60;;;;;;;;;;5164197;27;20068;-71
2023/01/13 07:28:30;;;;;;;8.30;2.70;;;;;;;;;;5158648;27;20022;-74
2023/01/13 07:30:55;;;;;;;8.57;3.58;;;;;;;;;;5157508;27;20079;-71
2023/01/13 07:33:21;;;;;;;11.98;2.80;;;;;;;;;;5160990;27;20027;-76
2023/01/13 07:35:48;;;;;;;6.50;2.50;;;;;;;;;;5164000;27;20031;-70
2023/01/13 07:38:14;;;;;;;10.82;2.70;;;;;;;;;;5159797;27;20022;-71
2023/01/13 07:40:40;;;;;;;7.32;2.60;;;;;;;;;;5164860;27;20027;-70
2023/01/13 07:45:55;;;;;;;7.20;2.30;;;;;;;;;;5163235;27;20283;-71
2023/01/13 07:48:20;;;;;;;6.53;2.30;;;;;;;;;;5163683;27;20029;-70
2023/01/13 07:50:46;;;;;;;7.97;1.80;;;;;;;;;;5163358;27;20019;-70
2023/01/13 07:53:11;;;;;;;6.68;2.10;;;;;;;;;;5162913;27;20481;-70
2023/01/13 07:55:43;;;;;;;5.07;1.70;;;;;;;;;;5162916;27;20047;-72
2023/01/13 07:58:09;;;;;;;7.97;2.00;;;;;;;;;;5163412;27;20056;-70
2023/01/13 08:00:35;;;;;;;6.15;1.70;;;;;;;;;;5164895;27;20245;-71
2023/01/13 08:03:01;;;;;;;11.55;1.77;;;;;;;;;;5161037;27;20030;-71
2023/01/13 08:05:26;;;;;;;8.05;1.60;;;;;;;;;;5164758;27;20029;-71
2023/01/13 08:07:52;;;;;;;7.95;1.80;;;;;;;;;;5164851;27;20022;-72
2023/01/13 08:10:17;;;;;;;7.97;3.00;;;;;;;;;;5164250;27;20023;-70
2023/01/13 08:15:28;;;;;;;7.13;1.65;;;;;;;;;;5164595;27;20215;-72
2023/01/13 08:17:54;;;;;;;5.05;1.25;;;;;;;;;;5162884;27;20023;-70
2023/01/13 08:20:19;;;;;;;6.35;1.63;;;;;;;;;;5164002;27;20105;-71
2023/01/13 08:22:45;;;;;;;5.05;1.30;;;;;;;;;;5164521;27;20297;-69
2023/01/13 08:25:10;;;;;;;4.25;1.40;;;;;;;;;;5164672;27;20136;-71
2023/01/13 08:27:35;;;;;;;8.40;1.48;;;;;;;;;;5162332;27;20027;-70
2023/01/13 08:30:01;;;;;;;6.93;1.65;;;;;;;;;;5162680;27;20018;-70
2023/01/13 08:32:26;;;;;;;5.72;1.50;;;;;;;;;;5165423;27;20264;-69
2023/01/13 08:34:51;;;;;;;6.72;1.65;;;;;;;;;;5162944;27;20094;-72
2023/01/13 08:37:17;;;;;;;6.40;1.52;;;;;;;;;;5165319;27;20019;-71
2023/01/13 08:39:42;;;;;;;6.25;1.50;;;;;;;;;;5163797;27;20431;-71
2023/01/13 08:42:08;;;;;;;5.22;1.30;;;;;;;;;;5164134;27;20060;-71
2023/01/13 08:44:33;;;;;;;8.65;2.22;;;;;;;;;;5161874;27;20030;-71
2023/01/13 08:46:59;;;;;;;6.20;1.70;;;;;;;;;;5159068;27;20422;-71
2023/01/13 08:49:25;;;;;;;5.55;1.70;;;;;;;;;;5154109;27;20037;-71
2023/01/13 08:51:52;;;;;;;7.53;1.58;;;;;;;;;;5156633;27;20031;-70
2023/01/13 08:54:18;;;;;;;4.15;1.88;;;;;;;;;;5160740;27;20393;-71
2023/01/13 08:56:45;;;;;;;5.43;1.42;;;;;;;;;;5160369;27;20098;-71
2023/01/13 08:59:15;;;;;;;5.25;1.75;;;;;;;;;;5153843;27;20528;-71
2023/01/13 09:01:41;;;;;;;7.38;1.50;;;;;;;;;;5151213;27;20026;-73
2023/01/13 09:04:14;;;;;;;4.93;2.10;;;;;;;;;;5153391;27;20019;-73
2023/01/13 09:06:39;;;;;;;6.50;2.17;;;;;;;;;;5153592;27;20067;-70
2023/01/13 09:09:05;;;;;;;8.65;3.53;;;;;;;;;;5153501;27;20113;-72
2023/01/13 09:14:24;;;;;;;5.93;1.73;;;;;;;;;;5152984;27;20038;-71
2023/01/13 09:16:49;;;;;;;5.03;1.80;;;;;;;;;;5153055;27;20058;-72
2023/01/13 09:19:15;;;;;;;4.85;1.50;;;;;;;;;;5153132;27;20060;-72
2023/01/13 09:21:43;;;;;;;4.82;1.45;;;;;;;;;;5152935;27;20027;-69
2023/01/13 09:24:08;;;;;;;5.78;1.52;;;;;;;;;;5153072;27;20051;-71
2023/01/13 09:26:34;;;;;;;4.22;1.58;;;;;;;;;;5151439;27;20061;-73
2023/01/13 09:29:02;;;;;;;5.20;1.90;;;;;;;;;;5150406;27;20026;-74
2023/01/13 09:31:33;;;;;;;9.57;2.40;;;;;;;;;;5151010;27;20025;-78
2023/01/13 09:36:42;;;;;;;4.32;1.38;;;;;;;;;;5151253;27;19918;-73
2023/01/13 09:39:08;;;;;;;5.78;1.60;;;;;;;;;;5151056;27;20027;-75
2023/01/13 09:44:51;;;;;;;2.88;1.17;;;;;;;;;;5152682;27;20061;-72
2023/01/13 09:47:26;;;;;;;7.72;1.38;;;;;;;;;;5152557;27;20039;-73
2023/01/13 09:49:58;;;;;;;2.72;1.27;;;;;;;;;;5152474;27;20159;-76
2023/01/13 09:52:24;;;;;;;3.53;1.30;;;;;;;;;;5152027;27;20018;-74
2023/01/13 09:55:12;;;;;;;3.20;1.20;;;;;;;;;;5152784;27;20703;-76
2023/01/13 09:57:39;;;;;;;3.03;1.30;;;;;;;;;;5152978;27;20445;-76
2023/01/13 10:00:25;;;;;;;3.00;1.17;;;;;;;;;;5152284;27;20019;-75
2023/01/13 10:03:16;;;;;;;3.72;1.15;;;;;;;;;;5152218;27;20029;-76
2023/01/13 10:05:43;;;;;;;;;;;;;;;;;;5152773;27;20030;-74
2023/01/13 10:08:22;;;;;;;5.00;1.00;;;;;;;;;;5156287;27;19951;-72
2023/01/13 10:13:12;;;;;;;2.85;1.13;;;;;;;;;;5152222;27;20117;-72
2023/01/13 10:13:51;;;;;;;4.50;1.00;;;;;;;;;;5145488;27;20034;-72
2023/01/13 10:16:40;;;;;;;3.33;1.20;;;;;;;;;;5152433;27;20042;-71
2023/01/13 10:19:28;;;;;;;3.15;1.00;;;;;;;;;;5152954;27;20026;-71
2023/01/13 10:22:15;;;;;;;4.22;1.10;;;;;;;;;;5159237;27;20027;-71
2023/01/13 10:25:19;;;;;;;4.65;0.90;;;;;;;;;;5157193;27;20030;-72
2023/01/13 10:27:48;;;;;;;4.70;1.10;;;;;;;;;;5152105;27;20030;-72
2023/01/13 10:30:20;;;;;;;3.63;1.00;;;;;;;;;;5162670;27;20492;-71
2023/01/13 10:32:51;;;;;;;1.30;0.70;;;;;;;;;;5151767;27;20118;-71
2023/01/13 10:35:16;;;;;;;2.78;0.90;;;;;;;;;;5152258;27;20078;-73
2023/01/13 10:37:56;;;;;;;2.35;1.00;;;;;;;;;;5158157;27;20594;-72
2023/01/13 10:40:22;;;;;;;3.28;1.23;;;;;;;;;;5152045;27;20418;-71
2023/01/13 10:42:47;;;;;;;8.55;2.20;;;;;;;;;;5151422;27;20042;-76
2023/01/13 10:45:23;;;;;;;3.20;1.00;;;;;;;;;;5151477;27;20587;-73
2023/01/13 10:48:06;;;;;;;2.78;1.17;;;;;;;;;;5151689;27;20496;-71
2023/01/13 10:50:34;;;;;;;4.78;2.40;;;;;;;;;;5151444;27;20023;-72
2023/01/13 10:53:16;;;;;;;6.78;3.00;;;;;;;;;;5156966;27;20037;-72
2023/01/13 10:55:57;;;;;;;3.97;1.20;;;;;;;;;;5154185;27;20023;-71
2023/01/13 10:58:24;;;;;;;1.90;0.90;;;;;;;;;;5157436;27;20478;-70
2023/01/13 11:01:00;;;;;;;2.63;0.98;;;;;;;;;;5156441;27;20046;-70
2023/01/13 11:03:41;;;;;;;3.38;1.00;;;;;;;;;;5155917;27;20034;-71
2023/01/13 11:06:08;;;;;;;3.15;1.02;;;;;;;;;;5156880;27;20027;-70
2023/01/13 11:08:45;;;;;;;5.97;1.60;;;;;;;;;;5157694;27;20046;-70
2023/01/13 11:11:42;;;;;;;9.13;1.92;;;;;;;;;;5156166;27;20011;-70
2023/01/13 11:14:35;;;;;;;3.15;1.30;;;;;;;;;;5155660;27;20118;-71
2023/01/13 11:17:08;;;;;;;2.92;1.10;;;;;;;;;;5154206;27;20516;-71
2023/01/13 11:19:39;;;;;;;3.90;1.20;;;;;;;;;;5154519;27;20019;-72
2023/01/13 11:22:14;;;;;;;5.70;1.20;;;;;;;;;;5154668;27;20038;-76
2023/01/13 11:24:50;;;;;;;3.67;1.13;;;;;;;;;;5135708;27;20057;-72
2023/01/13 11:27:46;;;;;;;3.45;0.95;;;;;;;;;;5153296;27;20031;-71
2023/01/13 11:30:31;;;;;;;4.63;0.90;;;;;;;;;;5154893;27;20026;-71
2023/01/13 11:33:09;;;;;;;3.63;1.00;;;;;;;;;;5161055;27;20079;-71
2023/01/13 11:35:40;;;;;;;4.18;0.80;;;;;;;;;;5155620;27;20023;-73
2023/01/13 11:38:18;;;;;;;1.15;0.70;;;;;;;;;;5154687;27;20058;-72
2023/01/13 11:40:49;;;;;;;3.97;1.30;;;;;;;;;;5154779;27;20021;-72
2023/01/13 11:43:28;;;;;;;;;;;;;;;;;;5153694;27;20686;-75
2023/01/13 11:46:00;;;;;;;2.70;0.80;;;;;;;;;;5153117;27;19915;-72
2023/01/13 11:48:29;;;;;;;3.15;0.95;;;;;;;;;;5154424;27;20071;-75
2023/01/13 11:51:13;;;;;;;2.50;1.05;;;;;;;;;;5154529;27;20474;-74
2023/01/13 11:53:53;;;;;;;3.78;0.80;;;;;;;;;;5154684;27;20557;-76
2023/01/13 11:56:28;;;;;;;2.95;0.82;;;;;;;;;;5154527;27;20018;-75
2023/01/13 11:59:29;;;;;;;5.88;0.90;;;;;;;;;;5154827;27;20470;-74
2023/01/13 12:02:06;;;;;;;1.73;0.80;;;;;;;;;;5154942;27;20106;-78
2023/01/13 12:04:43;;;;;;;2.65;0.88;;;;;;;;;;5153311;27;20046;-74
2023/01/13 12:07:21;;;;;;;2.97;1.00;;;;;;;;;;5154625;27;20478;-74
2023/01/13 12:10:04;;;;;;;2.95;0.73;;;;;;;;;;5154488;27;20103;-74
2023/01/13 12:13:09;;;;;;;2.20;0.90;;;;;;;;;;5153961;27;20030;-75
2023/01/13 12:15:50;;;;;;;1.88;0.70;;;;;;;;;;5135505;27;20076;-77
2023/01/13 12:18:19;;;;;;;;;;;;;;;;;;5154718;27;20042;-73
2023/01/13 12:21:03;;;;;;;2.55;1.10;;;;;;;;;;5154442;27;19911;-75
2023/01/13 12:23:53;;;;;;;2.75;1.05;;;;;;;;;;5154001;27;20034;-75
2023/01/13 12:26:18;;;;;;;2.22;1.00;;;;;;;;;;5153753;27;20085;-73
2023/01/13 12:28:58;;;;;;;2.65;0.68;;;;;;;;;;5154473;27;20116;-74
2023/01/13 12:31:24;;;;;;;3.28;1.00;;;;;;;;;;5154097;27;20508;-75
2023/01/13 12:34:08;;;;;;;6.00;1.20;;;;;;;;;;5153735;27;20023;-72
2023/01/13 12:36:42;;;;;;;2.58;0.80;;;;;;;;;;5154873;27;20656;-76
2023/01/13 12:39:19;;;;;;;4.25;0.90;;;;;;;;;;5155388;27;20107;-74
2023/01/13 12:45:08;;;;;;;4.43;1.20;;;;;;;;;;5153868;27;20084;-74
2023/01/13 12:47:42;;;;;;;2.35;0.90;;;;;;;;;;5155478;27;20122;-76
2023/01/13 12:50:22;;;;;;;4.30;1.00;;;;;;;;;;5153561;27;20091;-76
2023/01/13 12:52:58;;;;;;;4.30;1.02;;;;;;;;;;5154091;27;20023;-76
2023/01/13 12:55:26;;;;;;;3.28;1.00;;;;;;;;;;5153625;27;20125;-75
2023/01/13 12:58:07;;;;;;;3.67;1.30;;;;;;;;;;5153373;27;20023;-76
2023/01/13 13:00:38;;;;;;;3.72;1.23;;;;;;;;;;5153329;27;20027;-77
2023/01/13 13:03:09;;;;;;;4.13;1.40;;;;;;;;;;5153019;27;20026;-75
2023/01/13 13:06:05;;;;;;;4.95;0.95;;;;;;;;;;5153000;27;20027;-74
2023/01/13 13:08:57;;;;;;;4.18;0.85;;;;;;;;;;5153141;27;20109;-77
2023/01/13 13:14:38;;;;;;;6.13;1.10;;;;;;;;;;5152817;27;20026;-76
2023/01/13 13:17:24;;;;;;;5.85;0.93;;;;;;;;;;5151843;27;20027;-76
2023/01/13 13:19:50;;;;;;;4.57;0.88;;;;;;;;;;5152728;27;20026;-78
2023/01/13 13:22:20;;;;;;;4.32;0.90;;;;;;;;;;5152812;27;20838;-78
2023/01/13 13:24:56;;;;;;;4.75;0.90;;;;;;;;;;5152806;27;20019;-77
2023/01/13 13:27:26;;;;;;;3.22;1.10;;;;;;;;;;5153743;27;20037;-75
2023/01/13 13:29:56;;;;;;;;;;;;;;;;;;5152098;27;20022;-74
2023/01/13 13:32:28;;;;;;;4.70;0.90;;;;;;;;;;5156937;27;19914;-74
2023/01/13 13:35:30;;;;;;;3.50;0.80;;;;;;;;;;5152577;27;20102;-76
2023/01/13 13:46:46;;;;;;;4.90;1.00;;;;;;;;;;5155019;27;20041;-76
2023/01/13 13:49:33;;;;;;;2.90;1.08;;;;;;;;;;5157256;27;20023;-75
2023/01/13 13:52:02;;;;;;;4.10;0.90;;;;;;;;;;5155521;27;20030;-75
2023/01/13 13:54:28;;;;;;;6.78;0.90;;;;;;;;;;5155661;27;20647;-76
2023/01/13 13:56:54;;;;;;;4.65;1.00;;;;;;;;;;5152679;27;20033;-76
2023/01/13 13:59:25;;;;;;;4.07;1.00;;;;;;;;;;5155214;27;20121;-76
2023/01/13 14:02:00;;;;;;;3.40;1.20;;;;;;;;;;5151880;27;20692;-76
2023/01/13 14:04:34;;;;;;;4.70;1.10;;;;;;;;;;5151974;27;20052;-75
2023/01/13 14:07:13;;;;;;;3.65;0.93;;;;;;;;;;5151625;27;20068;-75
2023/01/13 14:09:44;;;;;;;5.30;1.15;;;;;;;;;;5152218;27;20026;-74
2023/01/13 14:12:19;;;;;;;2.72;0.90;;;;;;;;;;5152689;27;20034;-74
2023/01/13 14:14:46;;;;;;;4.55;1.20;;;;;;;;;;5151860;27;20027;-74
2023/01/13 14:17:29;;;;;;;3.70;1.15;;;;;;;;;;5152109;27;20466;-74
2023/01/13 14:20:15;;;;;;;3.55;1.08;;;;;;;;;;5151875;27;20027;-74
2023/01/13 14:22:48;;;;;;;4.35;1.20;;;;;;;;;;5152045;27;20037;-75
2023/01/13 14:25:31;;;;;;;3.05;0.90;;;;;;;;;;5152085;27;20027;-74
2023/01/13 14:27:59;;;;;;;4.40;1.10;;;;;;;;;;5155453;27;20023;-75
2023/01/13 14:30:27;;;;;;;3.30;0.77;;;;;;;;;;5155129;27;20023;-75
2023/01/13 14:32:53;;;;;;;3.47;0.88;;;;;;;;;;5156089;27;20501;-75
2023/01/13 14:35:19;;;;;;;6.93;0.95;;;;;;;;;;5155889;27;20030;-75
2023/01/13 14:37:54;;;;;;;3.70;0.88;;;;;;;;;;5156238;27;20018;-74
2023/01/13 14:40:32;;;;;;;3.72;1.10;;;;;;;;;;5156290;27;20670;-75
2023/01/13 14:43:02;;;;;;;4.97;1.17;;;;;;;;;;5156200;27;20062;-73
2023/01/13 14:45:29;;;;;;;6.55;1.20;;;;;;;;;;5155785;27;20050;-74
2023/01/13 14:47:57;;;;;;;6.20;1.40;;;;;;;;;;5156027;27;20037;-74
2023/01/13 14:50:30;;;;;;;7.50;1.42;;;;;;;;;;5155771;27;20470;-74
2023/01/13 14:52:56;;;;;;;5.97;1.02;;;;;;;;;;5155964;27;20027;-76
2023/01/13 14:55:30;;;;;;;5.80;1.13;;;;;;;;;;5156498;27;20049;-75
2023/01/13 14:58:20;;;;;;;4.32;1.00;;;;;;;;;;5156057;27;20059;-77
2023/01/13 15:00:46;;;;;;;9.27;2.10;;;;;;;;;;5155690;27;20457;-75
2023/01/13 15:03:16;;;;;;;7.22;1.13;;;;;;;;;;5153962;27;20074;-76
2023/01/13 15:05:48;;;;;;;7.45;1.10;;;;;;;;;;5154406;27;20025;-74
2023/01/13 15:08:13;;;;;;;6.47;1.10;;;;;;;;;;5155560;27;20085;-71
2023/01/13 15:11:01;;;;;;;3.85;1.13;;;;;;;;;;5155980;27;20596;-72
2023/01/13 15:13:35;;;;;;;5.88;1.38;;;;;;;;;;5155457;27;20041;-76
2023/01/13 15:16:13;;;;;;;4.90;1.40;;;;;;;;;;5161571;27;20048;-74
2023/01/13 15:18:40;;;;;;;3.85;1.17;;;;;;;;;;5161083;27;20022;-72
2023/01/13 15:21:06;;;;;;;6.50;0.93;;;;;;;;;;5157044;27;20056;-74
2023/01/13 15:23:31;;;;;;;6.28;0.93;;;;;;;;;;5159372;27;20689;-74
2023/01/13 15:25:59;;;;;;;5.47;1.00;;;;;;;;;;5156799;27;20076;-73
2023/01/13 15:28:25;;;;;;;7.93;1.10;;;;;;;;;;5157589;27;20023;-74
2023/01/13 15:30:53;;;;;;;7.65;1.10;;;;;;;;;;5157259;27;20030;-74
2023/01/13 15:33:20;;;;;;;6.85;1.23;;;;;;;;;;5159888;27;20093;-73
2023/01/13 15:35:50;;;;;;;7.07;1.38;;;;;;;;;;5155789;27;20629;-73
2023/01/13 15:38:18;;;;;;;4.07;1.20;;;;;;;;;;5154982;27;20408;-73
2023/01/13 15:40:44;;;;;;;7.82;1.10;;;;;;;;;;5161129;27;20071;-76
2023/01/13 15:48:43;;;;;;;8.35;1.35;;;;;;;;;;5156662;27;20082;-74
2023/01/13 15:51:11;;;;;;;4.68;1.30;;;;;;;;;;5162459;27;20303;-73
2023/01/13 15:53:37;;;;;;;6.93;1.55;;;;;;;;;;5164769;27;20111;-77
2023/01/13 15:56:10;;;;;;;9.48;1.60;;;;;;;;;;5166264;27;20026;-75
2023/01/13 15:58:35;;;;;;;9.70;1.80;;;;;;;;;;5166040;27;20096;-78
2023/01/13 16:01:01;;;;;;;8.23;1.50;;;;;;;;;;5165990;27;20365;-73
2023/01/13 16:03:26;;;;;;;6.65;1.27;;;;;;;;;;5163438;27;20079;-75
2023/01/13 16:05:51;;;;;;;9.07;1.50;;;;;;;;;;5165943;27;20025;-76
2023/01/13 16:08:19;;;;;;;7.43;1.33;;;;;;;;;;5163815;27;20035;-73
2023/01/13 16:10:44;;;;;;;6.45;1.42;;;;;;;;;;5156832;27;20026;-75
2023/01/13 16:13:11;;;;;;;7.25;1.40;;;;;;;;;;5153491;27;20019;-75
2023/01/13 16:15:43;;;;;;;10.93;1.73;;;;;;;;;;5154462;27;20027;-75
2023/01/13 16:18:18;;;;;;;13.07;1.75;;;;;;;;;;5154281;27;20018;-75